Pagina principală
METAR-TAF:

METAR-TAF

Aeroporturi :

Aeroportul Internațional Dallas-Fort Worth

Dallas-Fort Worth, Texas, Statele Unite ale Americii

Latitudine: 32-53-49N, longitudine: 097-01-19W, elevație: 183 m

Observații meteo curente

Raportul a fost făcut în urmă cu 46 de minute, la 15:53 UTC
Vânt 5 kt de la Sud
Temperatură 27°C
Umiditate 70%
Presiune 1012 hPa
Vizibilitate: 16.1 km
Nori puțini la o înălțime de 2000 picior

METAR: KDFW 181553Z 17005KT 10SM FEW020 27/21 A2987 RMK AO2 SLP107 T02670211

Ora: 11:39 (16:39 UTC)

Prognoză

Raportul a fost făcut în urmă cu 1 oră și 40 de minute, la 14:59 UTC
Prognoză valabilă de la 18 ora 15 UTC la 19 ora 18 UTC
Vânt 7 kt de la Sud/Sud-est
Vizibilitate: 10 km
Cer senin

TAF: KDFW 181459Z 1815/1918 16007KT P6SM SKC

Observații și prognoze meteo pentru peste 4.000 de aeroporturi (rapoarte METAR și TAF).

Stațiile disponibile sunt reprezentate pe hartă prin puncte galbene și roșii.

Țineți indicatorul mouse-ului pe punctul dorit pentru a vedea denumirea stației.

Apoi, faceți clic pentru a vedea observațiile și prognozele meteorologice.

Pentru a schimba harta: Pentru mărire, faceți clic pe butoanele verzi cu cruce neagră; pentru micșorare, pe butonul verde cu o liniuță; pentru hărți învecinate, pe săgețile verzi.


METAR-TAF: